Time;durP1;ratioP1;P1;durP2;ratioP2;P2;SDS_P1;SDS_P2;PMS_P1;PMS_P2;Temp;Humidity;BMP_temperature;BMP_pressure;BME280_temperature;BME280_humidity;BME280_pressure;Samples;Min_cycle;Max_cycle;Signal;HPM_P1;HPM_P2
2021/11/07 00:06:36;;;;;;;30.20;18.20;;;6.80;99.90;;;;;;5092277;28;20024;-67
2021/11/07 00:09:16;;;;;;;28.48;18.27;;;6.90;99.90;;;;;;5092784;28;20107;-67
2021/11/07 00:11:43;;;;;;;31.67;20.27;;;6.80;99.90;;;;;;5091153;28;20454;-67
2021/11/07 00:14:10;;;;;;;31.05;19.00;;;6.90;99.90;;;;;;5091766;28;20032;-67
2021/11/07 00:16:39;;;;;;;32.28;18.10;;;6.90;99.90;;;;;;5091559;28;20138;-67
2021/11/07 00:19:26;;;;;;;33.80;18.52;;;6.90;99.90;;;;;;5092240;28;20112;-67
2021/11/07 00:24:48;;;;;;;30.67;17.40;;;6.70;99.90;;;;;;5091242;28;20436;-66
2021/11/07 00:27:34;;;;;;;28.92;17.90;;;6.80;99.90;;;;;;5091252;28;20097;-66
2021/11/07 00:32:41;;;;;;;27.88;17.08;;;6.70;99.90;;;;;;5089883;28;20040;-67
2021/11/07 00:35:37;;;;;;;28.35;17.33;;;6.60;99.90;;;;;;5071514;28;20025;-66
2021/11/07 00:37:57;;;;;;;27.25;16.48;;;6.80;99.90;;;;;;5071189;28;20036;-67
2021/11/07 00:40:37;;;;;;;28.10;17.00;;;6.80;99.90;;;;;;5071007;28;20109;-68
2021/11/07 00:43:12;;;;;;;26.50;17.13;;;6.80;99.90;;;;;;5071545;28;20020;-67
2021/11/07 00:46:03;;;;;;;32.15;17.83;;;6.70;99.90;;;;;;5053010;28;20339;-66
2021/11/07 00:49:19;;;;;;;26.75;17.13;;;6.70;99.90;;;;;;5070639;28;20047;-67
2021/11/07 00:56:34;;;;;;;29.20;16.33;;;6.70;99.90;;;;;;5070715;28;20039;-67
2021/11/07 00:59:08;;;;;;;29.42;18.17;;;6.60;99.90;;;;;;5071484;28;20027;-67
2021/11/07 01:01:37;;;;;;;26.48;15.57;;;6.50;99.90;;;;;;5052648;28;20031;-67
2021/11/07 01:04:06;;;;;;;27.35;16.65;;;6.60;99.90;;;;;;5071287;28;20491;-66
2021/11/07 01:06:32;;;;;;;25.48;16.00;;;6.60;99.90;;;;;;5053884;28;20036;-66
2021/11/07 01:08:58;;;;;;;26.67;16.67;;;6.50;99.90;;;;;;5071596;28;20024;-67
2021/11/07 01:11:24;;;;;;;28.85;16.90;;;6.50;99.90;;;;;;5071316;28;20046;-66
2021/11/07 01:13:50;;;;;;;28.85;15.90;;;6.40;99.90;;;;;;5072007;28;20115;-67
2021/11/07 01:16:17;;;;;;;27.02;16.45;;;6.50;99.90;;;;;;5071926;28;20029;-67
2021/11/07 01:18:43;;;;;;;27.73;15.82;;;6.50;99.90;;;;;;5071182;28;20101;-67
2021/11/07 01:21:12;;;;;;;25.80;16.38;;;6.40;99.90;;;;;;5053755;28;20075;-67
2021/11/07 01:23:48;;;;;;;30.27;18.05;;;6.50;99.90;;;;;;5071120;28;20098;-68
2021/11/07 01:26:19;;;;;;;32.65;18.48;;;6.60;99.90;;;;;;5053708;28;20029;-68
2021/11/07 01:28:52;;;;;;;31.13;18.83;;;6.60;99.90;;;;;;5071766;28;20020;-68
2021/11/07 01:31:18;;;;;;;32.60;19.52;;;6.60;99.90;;;;;;5053521;28;20044;-67
2021/11/07 01:33:45;;;;;;;36.40;18.88;;;6.50;99.90;;;;;;5072403;28;20047;-66
2021/11/07 01:36:28;;;;;;;30.13;18.05;;;6.40;99.90;;;;;;5091686;28;20036;-67
2021/11/07 01:41:33;;;;;;;33.05;19.65;;;6.40;99.90;;;;;;5091102;28;20032;-67
2021/11/07 01:43:59;;;;;;;36.55;19.77;;;6.40;99.90;;;;;;5091950;28;20020;-68
2021/11/07 01:46:31;;;;;;;36.95;20.40;;;6.50;99.90;;;;;;5089658;28;20070;-68
2021/11/07 01:49:09;;;;;;;36.97;20.80;;;6.50;99.90;;;;;;5091479;28;20487;-66
2021/11/07 01:51:35;;;;;;;39.25;20.73;;;6.40;99.90;;;;;;5089808;28;20036;-67
2021/11/07 01:54:16;;;;;;;39.78;21.27;;;6.40;99.90;;;;;;5091058;28;20461;-67
2021/11/07 01:56:41;;;;;;;36.25;19.85;;;6.40;99.90;;;;;;5089563;28;20609;-67
2021/11/07 01:59:07;;;;;;;31.85;18.05;;;6.40;99.90;;;;;;5089912;28;20052;-67
2021/11/07 02:01:33;;;;;;;30.45;19.30;;;6.40;99.90;;;;;;5088957;28;20385;-66
2021/11/07 02:03:59;;;;;;;35.22;19.70;;;6.40;99.90;;;;;;5090809;28;20393;-67
2021/11/07 02:06:25;;;;;;;30.25;18.60;;;6.40;99.90;;;;;;5090738;28;20081;-67
2021/11/07 02:08:51;;;;;;;29.42;18.27;;;6.40;99.90;;;;;;5089968;28;20058;-67
2021/11/07 02:11:18;;;;;;;30.58;18.02;;;6.40;99.90;;;;;;5089914;28;20028;-66
2021/11/07 02:13:46;;;;;;;29.42;16.77;;;6.50;99.90;;;;;;5089267;28;20044;-67
2021/11/07 02:16:12;;;;;;;32.78;17.30;;;6.50;99.90;;;;;;5091281;28;20048;-67
2021/11/07 02:18:38;;;;;;;28.33;16.42;;;6.40;99.90;;;;;;5090517;28;20031;-68
2021/11/07 02:21:05;;;;;;;25.27;16.73;;;6.40;99.90;;;;;;5093463;28;20476;-66
2021/11/07 02:23:32;;;;;;;27.50;15.82;;;6.30;99.90;;;;;;5092733;28;20055;-67
2021/11/07 02:26:03;;;;;;;27.13;16.92;;;6.30;99.90;;;;;;5094741;28;20107;-68
2021/11/07 02:28:39;;;;;;;30.30;17.30;;;6.30;99.90;;;;;;5093984;28;20430;-65
2021/11/07 02:31:07;;;;;;;28.27;18.08;;;6.30;99.90;;;;;;5094644;28;20028;-67
2021/11/07 02:33:33;;;;;;;30.13;17.80;;;6.40;99.90;;;;;;5083594;28;20503;-66
2021/11/07 02:36:12;;;;;;;39.42;17.40;;;6.20;99.90;;;;;;5056361;28;20029;-66
2021/11/07 02:38:38;;;;;;;28.92;17.80;;;6.30;99.90;;;;;;5073793;28;20071;-67
2021/11/07 02:41:05;;;;;;;39.55;17.65;;;6.10;99.90;;;;;;5074343;28;20036;-68
2021/11/07 02:43:38;;;;;;;36.25;19.92;;;6.10;99.90;;;;;;5073495;28;20036;-67
2021/11/07 02:46:03;;;;;;;30.50;17.38;;;6.20;99.90;;;;;;5074245;28;20035;-66
2021/11/07 02:48:29;;;;;;;28.92;17.95;;;6.20;99.90;;;;;;5073452;28;20107;-67
2021/11/07 02:50:54;;;;;;;29.73;17.45;;;6.20;99.90;;;;;;5056351;28;20050;-67
2021/11/07 02:53:20;;;;;;;29.02;17.92;;;6.30;99.90;;;;;;5073674;28;20418;-67
2021/11/07 02:55:46;;;;;;;28.55;17.25;;;6.20;99.90;;;;;;5073194;28;20032;-67
2021/11/07 02:58:12;;;;;;;27.02;16.35;;;6.30;99.90;;;;;;5073987;28;20477;-66
2021/11/07 03:00:38;;;;;;;27.45;17.25;;;6.30;99.90;;;;;;5073415;28;20066;-67
2021/11/07 03:03:03;;;;;;;28.83;17.02;;;6.30;99.90;;;;;;5073934;28;20040;-68
2021/11/07 03:05:31;;;;;;;25.65;16.17;;;6.30;99.90;;;;;;5055284;28;20122;-67
2021/11/07 03:07:57;;;;;;;27.30;17.00;;;6.30;99.90;;;;;;5073901;28;20454;-67
2021/11/07 03:10:26;;;;;;;25.80;15.48;;;6.30;99.90;;;;;;5073568;28;20031;-67
2021/11/07 03:13:11;;;;;;;29.45;16.75;;;6.30;99.90;;;;;;5073977;28;20089;-67
2021/11/07 03:15:39;;;;;;;30.95;17.65;;;6.30;99.90;;;;;;5055252;28;20389;-67
2021/11/07 03:18:09;;;;;;;31.35;18.02;;;6.20;99.90;;;;;;5073825;28;20063;-66
2021/11/07 03:20:35;;;;;;;27.92;16.45;;;6.20;99.90;;;;;;5073239;28;20074;-67
2021/11/07 03:23:02;;;;;;;27.83;17.75;;;6.20;99.90;;;;;;5055703;28;20035;-67
2021/11/07 03:25:28;;;;;;;27.98;16.67;;;6.10;99.90;;;;;;5072858;28;20028;-68
2021/11/07 03:27:54;;;;;;;27.33;16.70;;;6.00;99.90;;;;;;5073578;28;20104;-66
2021/11/07 03:33:06;;;;;;;32.97;18.77;;;6.10;99.90;;;;;;5073549;28;20088;-67
2021/11/07 03:35:32;;;;;;;35.33;16.42;;;6.10;99.90;;;;;;5055440;28;20044;-66
2021/11/07 03:37:58;;;;;;;26.63;16.05;;;6.00;99.90;;;;;;5073122;28;20099;-66
2021/11/07 03:40:25;;;;;;;32.38;17.45;;;5.90;99.90;;;;;;5054878;28;20086;-66
2021/11/07 03:42:51;;;;;;;25.27;15.77;;;5.90;99.90;;;;;;5072330;28;20029;-67
2021/11/07 03:45:18;;;;;;;28.80;15.88;;;6.00;99.90;;;;;;5055201;28;20025;-66
2021/11/07 03:47:44;;;;;;;25.08;15.77;;;6.00;99.90;;;;;;5072937;28;20036;-67
2021/11/07 03:50:11;;;;;;;30.52;15.35;;;6.10;99.90;;;;;;5073169;28;20226;-66
2021/11/07 03:52:37;;;;;;;22.52;14.05;;;6.00;99.90;;;;;;5072439;28;20025;-67
2021/11/07 03:55:04;;;;;;;32.03;16.70;;;6.00;99.90;;;;;;5055147;28;20033;-67
2021/11/07 03:57:30;;;;;;;25.65;15.60;;;6.00;99.90;;;;;;5054360;28;20035;-67
2021/11/07 03:59:56;;;;;;;24.02;15.25;;;6.10;99.90;;;;;;5050294;28;20021;-66
2021/11/07 04:02:21;;;;;;;23.92;15.00;;;6.10;99.90;;;;;;5037450;28;20087;-67
2021/11/07 04:04:47;;;;;;;25.73;15.98;;;6.10;99.90;;;;;;5053538;28;20108;-67
2021/11/07 04:07:12;;;;;;;26.13;15.68;;;6.10;99.90;;;;;;5052954;28;20100;-67
2021/11/07 04:09:38;;;;;;;24.70;14.73;;;6.00;99.90;;;;;;5052113;28;20111;-67
2021/11/07 04:12:05;;;;;;;24.27;15.00;;;6.10;99.90;;;;;;5052353;28;20108;-66
2021/11/07 04:14:34;;;;;;;23.58;14.57;;;6.00;99.90;;;;;;5033971;28;20041;-66
2021/11/07 04:17:05;;;;;;;26.33;15.20;;;6.00;99.90;;;;;;5052281;28;20451;-66
2021/11/07 04:19:31;;;;;;;24.15;14.48;;;5.90;99.90;;;;;;5033961;28;20050;-67
2021/11/07 04:22:02;;;;;;;23.40;14.95;;;5.90;99.90;;;;;;5052161;28;20427;-67
2021/11/07 04:24:28;;;;;;;23.17;14.88;;;6.00;99.90;;;;;;5052488;28;20060;-66
2021/11/07 04:26:53;;;;;;;24.02;15.27;;;5.90;99.90;;;;;;5033599;28;20470;-69
2021/11/07 04:29:20;;;;;;;23.15;14.38;;;5.90;99.90;;;;;;5033944;28;20381;-66
2021/11/07 04:31:45;;;;;;;23.17;14.82;;;6.00;99.90;;;;;;5033525;28;20025;-67
2021/11/07 04:34:11;;;;;;;24.45;14.80;;;6.00;99.90;;;;;;5052109;28;20064;-66
2021/11/07 04:36:36;;;;;;;27.65;14.63;;;5.90;99.90;;;;;;5051606;28;20505;-66
2021/11/07 04:39:04;;;;;;;26.08;15.18;;;6.00;99.90;;;;;;5052469;28;20111;-66
2021/11/07 04:41:29;;;;;;;19.75;12.90;;;6.00;99.90;;;;;;5051854;28;20494;-65
2021/11/07 04:43:55;;;;;;;20.80;12.82;;;5.90;99.90;;;;;;5050516;28;20029;-66
2021/11/07 04:46:21;;;;;;;21.92;13.63;;;5.90;99.90;;;;;;5051995;28;20147;-66
2021/11/07 04:48:48;;;;;;;22.88;13.82;;;5.90;99.90;;;;;;5033361;28;20025;-66
2021/11/07 04:51:15;;;;;;;20.02;12.57;;;5.90;99.90;;;;;;5033953;28;20024;-66
2021/11/07 04:53:41;;;;;;;24.30;13.70;;;5.80;99.90;;;;;;5051148;28;20044;-66
2021/11/07 04:56:06;;;;;;;21.48;13.13;;;5.80;99.90;;;;;;5051744;28;20033;-67
2021/11/07 04:58:34;;;;;;;23.50;14.05;;;5.90;99.90;;;;;;5051459;28;20026;-70
2021/11/07 05:01:00;;;;;;;22.48;13.23;;;5.90;99.90;;;;;;5051471;28;20029;-66
2021/11/07 05:03:28;;;;;;;20.73;13.20;;;6.00;99.90;;;;;;5051775;28;20064;-67
2021/11/07 05:05:54;;;;;;;21.05;13.85;;;5.90;99.90;;;;;;5033498;28;20028;-67
2021/11/07 05:08:19;;;;;;;20.40;12.70;;;6.00;99.90;;;;;;5034028;28;20029;-67
2021/11/07 05:10:45;;;;;;;23.20;14.35;;;6.00;99.90;;;;;;5033115;28;20032;-67
2021/11/07 05:13:12;;;;;;;20.10;12.65;;;5.90;99.90;;;;;;5033767;28;20389;-66
2021/11/07 05:15:38;;;;;;;20.98;12.63;;;5.90;99.90;;;;;;5051103;28;20156;-66
2021/11/07 05:18:04;;;;;;;21.65;12.88;;;5.90;99.90;;;;;;5051320;28;20052;-66
2021/11/07 05:20:30;;;;;;;20.42;12.43;;;6.00;99.90;;;;;;5033822;28;20029;-67
2021/11/07 05:22:56;;;;;;;18.27;12.00;;;6.10;99.90;;;;;;5050860;28;20037;-66
2021/11/07 05:25:22;;;;;;;19.58;12.13;;;6.10;99.90;;;;;;5051455;28;20425;-66
2021/11/07 05:27:48;;;;;;;22.60;13.15;;;6.00;99.90;;;;;;5032802;28;20036;-66
2021/11/07 05:30:17;;;;;;;20.55;12.18;;;6.00;99.90;;;;;;5051326;28;20025;-66
2021/11/07 05:32:44;;;;;;;21.98;13.50;;;6.10;99.90;;;;;;5050216;28;20124;-65
2021/11/07 05:35:11;;;;;;;18.90;12.48;;;6.00;99.90;;;;;;5051404;28;20040;-66
2021/11/07 05:37:37;;;;;;;23.10;13.60;;;6.00;99.90;;;;;;5050750;28;20067;-67
2021/11/07 05:40:05;;;;;;;19.00;11.63;;;6.10;99.90;;;;;;5033097;28;20029;-66
2021/11/07 05:42:31;;;;;;;22.95;12.70;;;6.10;99.90;;;;;;5033130;28;20067;-67
2021/11/07 05:44:56;;;;;;;27.70;12.18;;;6.10;99.90;;;;;;5050581;28;20475;-66
2021/11/07 05:47:22;;;;;;;22.35;12.95;;;6.10;99.90;;;;;;5050897;28;20021;-66
2021/11/07 05:49:48;;;;;;;25.95;14.73;;;6.20;99.90;;;;;;5032440;28;20025;-66
2021/11/07 05:52:13;;;;;;;23.42;12.88;;;6.10;99.90;;;;;;5033317;28;20482;-67
2021/11/07 05:54:39;;;;;;;23.02;12.45;;;6.20;99.90;;;;;;5051040;28;20029;-67
2021/11/07 05:57:05;;;;;;;20.40;12.48;;;6.20;99.90;;;;;;5054778;28;20029;-67
2021/11/07 05:59:31;;;;;;;22.88;13.45;;;6.10;99.90;;;;;;5054706;28;20390;-66
2021/11/07 06:01:57;;;;;;;20.67;12.60;;;6.10;99.90;;;;;;5036461;28;20463;-66
2021/11/07 06:04:23;;;;;;;22.60;14.15;;;6.20;99.90;;;;;;5055033;28;20087;-66
2021/11/07 06:06:48;;;;;;;21.00;12.23;;;6.20;99.90;;;;;;5054196;28;20454;-66
2021/11/07 06:09:14;;;;;;;21.85;13.02;;;6.20;99.90;;;;;;5054531;28;20029;-67
2021/11/07 06:11:40;;;;;;;24.35;12.45;;;6.20;99.90;;;;;;5052911;28;20047;-65
2021/11/07 06:14:05;;;;;;;22.25;14.40;;;6.20;99.90;;;;;;5053375;28;20083;-65
2021/11/07 06:16:31;;;;;;;22.58;14.13;;;6.20;99.90;;;;;;5054634;28;20029;-67
2021/11/07 06:18:57;;;;;;;22.65;13.90;;;6.30;99.90;;;;;;5054146;28;20315;-66
2021/11/07 06:21:24;;;;;;;24.08;14.77;;;6.30;99.90;;;;;;5036840;28;20047;-66
2021/11/07 06:23:49;;;;;;;21.90;14.07;;;6.30;99.90;;;;;;5053888;28;20029;-66
2021/11/07 06:26:16;;;;;;;28.83;12.90;;;6.20;99.90;;;;;;5054209;28;20066;-67
2021/11/07 06:28:41;;;;;;;25.30;12.55;;;6.20;99.90;;;;;;5053742;28;20101;-66
2021/11/07 06:31:09;;;;;;;24.02;13.27;;;6.20;99.90;;;;;;5053963;28;20020;-65
2021/11/07 06:33:35;;;;;;;23.58;13.98;;;6.10;99.90;;;;;;5053253;28;20067;-66
2021/11/07 06:36:02;;;;;;;25.10;13.90;;;6.20;99.90;;;;;;5073674;28;20470;-65
2021/11/07 06:38:29;;;;;;;24.90;14.52;;;6.10;99.90;;;;;;5074225;28;20039;-66
2021/11/07 06:40:55;;;;;;;20.52;12.75;;;6.10;99.90;;;;;;5073528;28;20043;-66
2021/11/07 06:43:21;;;;;;;25.55;13.63;;;6.10;99.90;;;;;;5072969;28;20024;-66
2021/11/07 06:45:47;;;;;;;23.45;13.98;;;6.10;99.90;;;;;;5072355;28;20382;-66
2021/11/07 06:48:13;;;;;;;21.42;13.88;;;6.20;99.90;;;;;;5074198;28;20103;-66
2021/11/07 06:50:39;;;;;;;25.05;14.00;;;6.20;99.90;;;;;;5072777;28;20025;-70
2021/11/07 06:53:05;;;;;;;24.77;14.43;;;6.10;99.90;;;;;;5073856;28;20044;-66
2021/11/07 06:55:31;;;;;;;24.55;13.70;;;6.20;99.90;;;;;;5072646;28;20381;-67
2021/11/07 06:57:57;;;;;;;23.48;12.52;;;6.30;99.90;;;;;;5073516;28;20028;-67
2021/11/07 07:00:26;;;;;;;21.85;12.90;;;6.30;99.90;;;;;;5072511;28;20401;-66
2021/11/07 07:02:52;;;;;;;23.70;13.48;;;6.40;99.90;;;;;;5073188;28;20037;-66
2021/11/07 07:05:19;;;;;;;21.80;13.57;;;6.40;99.90;;;;;;5073338;28;20521;-66
2021/11/07 07:07:50;;;;;;;22.60;12.77;;;6.50;99.90;;;;;;5071847;28;20032;-66
2021/11/07 07:12:55;;;;;;;24.50;13.05;;;6.50;99.90;;;;;;5072996;28;20043;-66
2021/11/07 07:15:27;;;;;;;21.00;13.63;;;6.40;99.90;;;;;;5072723;28;20489;-66
2021/11/07 07:18:11;;;;;;;24.25;13.65;;;6.40;99.90;;;;;;5073339;28;20025;-67
2021/11/07 07:26:43;;;;;;;23.85;12.85;;;6.40;99.90;;;;;;5072965;28;20031;-66
2021/11/07 07:29:04;;;;;;;27.25;12.50;;;6.50;99.90;;;;;;5069398;28;20455;-67
2021/11/07 07:31:56;;;;;;;22.23;12.45;;;6.60;99.90;;;;;;5072138;28;20421;-67
2021/11/07 07:34:21;;;;;;;21.15;13.18;;;6.70;99.90;;;;;;5056434;28;20497;-66
2021/11/07 07:36:47;;;;;;;21.23;12.80;;;6.70;99.90;;;;;;5052854;28;20108;-67
2021/11/07 07:39:12;;;;;;;23.00;12.38;;;6.70;99.90;;;;;;5052926;28;20103;-66
2021/11/07 07:41:38;;;;;;;20.95;12.10;;;6.70;99.90;;;;;;5035055;28;20462;-67
2021/11/07 07:44:09;;;;;;;23.42;13.35;;;6.70;99.90;;;;;;5034538;28;20033;-67
2021/11/07 07:46:42;;;;;;;20.80;12.00;;;6.80;99.90;;;;;;5035235;28;20040;-66
2021/11/07 07:49:09;;;;;;;18.73;12.05;;;6.80;99.90;;;;;;5052683;28;20021;-66
2021/11/07 07:51:35;;;;;;;20.17;13.32;;;6.80;99.90;;;;;;5034975;28;20082;-66
2021/11/07 07:54:02;;;;;;;23.92;12.95;;;6.70;99.90;;;;;;5052128;28;20425;-65
2021/11/07 07:56:30;;;;;;;18.75;11.13;;;6.70;99.90;;;;;;5034508;28;20501;-66
2021/11/07 07:58:56;;;;;;;22.23;13.27;;;6.70;99.90;;;;;;5052398;28;20036;-69
2021/11/07 08:01:23;;;;;;;23.55;13.73;;;6.70;99.90;;;;;;5051601;28;20115;-70
2021/11/07 08:03:49;;;;;;;25.60;12.98;;;6.60;99.90;;;;;;5065229;28;20036;-68
2021/11/07 08:06:15;;;;;;;20.80;12.20;;;6.70;99.90;;;;;;5053472;28;20078;-66
2021/11/07 08:08:41;;;;;;;19.40;11.65;;;7.50;99.90;;;;;;5054488;28;20036;-68
2021/11/07 08:11:06;;;;;;;18.50;11.85;;;8.10;99.90;;;;;;5053936;28;20354;-66
2021/11/07 08:13:33;;;;;;;17.95;11.90;;;7.70;99.90;;;;;;5054262;28;20094;-67
2021/11/07 08:15:59;;;;;;;26.38;13.68;;;7.30;99.90;;;;;;5071683;28;20033;-66
2021/11/07 08:18:24;;;;;;;18.40;11.82;;;7.00;99.90;;;;;;5051587;28;20029;-67
2021/11/07 08:20:51;;;;;;;26.05;17.25;;;6.90;99.90;;;;;;5066649;28;20059;-67
2021/11/07 08:23:20;;;;;;;18.52;10.68;;;7.10;99.90;;;;;;5069993;28;20033;-66
2021/11/07 08:25:45;;;;;;;21.27;11.82;;;6.90;99.90;;;;;;5069946;28;20068;-66
2021/11/07 08:28:12;;;;;;;17.45;11.45;;;7.00;99.90;;;;;;5069839;28;20071;-66
2021/11/07 08:30:41;;;;;;;20.50;11.85;;;6.90;99.90;;;;;;5070486;28;20103;-67
2021/11/07 08:33:08;;;;;;;18.33;11.95;;;6.90;99.90;;;;;;5066733;28;20072;-67
2021/11/07 08:35:38;;;;;;;20.42;12.23;;;6.90;99.90;;;;;;5070471;28;20039;-68
2021/11/07 08:38:11;;;;;;;19.98;12.80;;;6.80;99.90;;;;;;5070147;28;20030;-67
2021/11/07 08:40:43;;;;;;;19.85;12.65;;;6.80;99.90;;;;;;5070231;28;20465;-66
2021/11/07 09:02:53;;;;;;;18.38;11.00;;;7.50;99.90;;;;;;5040066;28;20033;-68
2021/11/07 09:05:30;;;;;;;16.45;11.60;;;7.20;99.90;;;;;;5071490;28;20123;-68
2021/11/07 09:08:02;;;;;;;19.20;11.50;;;7.10;99.90;;;;;;5051381;28;20450;-68
2021/11/07 09:10:32;;;;;;;19.38;12.13;;;7.00;99.90;;;;;;5044629;28;20020;-66
2021/11/07 09:12:59;;;;;;;18.52;11.82;;;7.00;99.90;;;;;;5046797;28;20129;-67
2021/11/07 09:15:26;;;;;;;18.08;12.68;;;7.10;99.90;;;;;;5053056;28;20035;-68
2021/11/07 09:17:52;;;;;;;19.92;12.25;;;7.00;99.90;;;;;;5069464;28;20025;-65
2021/11/07 09:20:27;;;;;;;20.35;11.90;;;7.00;99.90;;;;;;5071002;28;20029;-66
2021/11/07 09:23:05;;;;;;;14.70;10.52;;;6.90;99.90;;;;;;5038419;28;20032;-61
2021/11/07 09:25:37;;;;;;;15.45;9.23;;;9.70;99.90;;;;;;5061961;28;20028;-75
2021/11/07 09:28:14;;;;;;;12.20;8.90;;;10.60;99.90;;;;;;5052492;28;20104;-76
2021/11/07 09:30:52;;;;;;;13.85;8.38;;;9.50;99.90;;;;;;5052357;28;20055;-72
2021/11/07 09:33:29;;;;;;;16.73;10.57;;;9.40;99.90;;;;;;5065171;28;20406;-71
2021/11/07 09:38:26;;;;;;;14.55;8.85;;;8.50;99.90;;;;;;5090795;28;20058;-69
2021/11/07 09:46:33;;;;;;;17.42;10.25;;;7.70;99.90;;;;;;5090285;28;20190;-68
2021/11/07 09:48:56;;;;;;;17.80;11.48;;;7.50;99.90;;;;;;5089310;28;20170;-70
2021/11/07 09:51:28;;;;;;;16.80;10.40;;;7.40;99.90;;;;;;5091024;28;20032;-69
2021/11/07 09:53:55;;;;;;;16.08;10.35;;;7.40;99.90;;;;;;5090414;28;20028;-69
2021/11/07 09:56:22;;;;;;;17.73;10.13;;;7.30;99.90;;;;;;5086974;28;20028;-69
2021/11/07 09:58:51;;;;;;;16.90;11.00;;;7.30;99.90;;;;;;5089061;28;20054;-74
2021/11/07 10:01:18;;;;;;;16.90;10.60;;;7.30;99.90;;;;;;5091236;28;20065;-68
2021/11/07 10:03:45;;;;;;;15.57;9.15;;;7.40;99.90;;;;;;5091240;28;20108;-68
2021/11/07 10:06:27;;;;;;;14.07;9.88;;;7.30;99.90;;;;;;5090375;28;20028;-69
2021/11/07 10:08:54;;;;;;;15.88;9.32;;;7.40;99.90;;;;;;5090195;28;20028;-69
2021/11/07 10:11:25;;;;;;;14.43;9.95;;;7.40;99.90;;;;;;5089414;28;20028;-69
2021/11/07 10:14:20;;;;;;;16.48;9.90;;;7.40;99.90;;;;;;5089556;28;20130;-68
2021/11/07 10:16:51;;;;;;;16.60;10.20;;;7.30;99.90;;;;;;5083543;28;20069;-72
2021/11/07 10:19:39;;;;;;;13.38;8.18;;;7.30;99.90;;;;;;5070533;28;20110;-71
2021/11/07 10:22:18;;;;;;;13.15;8.65;;;7.50;99.90;;;;;;5088485;28;20020;-72
2021/11/07 10:24:54;;;;;;;10.50;8.38;;;7.50;99.90;;;;;;5081998;28;20024;-71
2021/11/07 10:27:20;;;;;;;15.90;8.90;;;7.50;99.90;;;;;;5070467;28;20024;-72
2021/11/07 10:29:49;;;;;;;12.35;8.98;;;7.60;99.90;;;;;;5082859;28;20125;-72
2021/11/07 10:32:26;;;;;;;11.98;8.13;;;7.60;99.90;;;;;;5090702;28;20024;-71
2021/11/07 10:35:33;;;;;;;12.35;7.30;;;7.70;99.90;;;;;;5079009;28;20037;-71
2021/11/07 10:41:47;;;;;;;13.63;7.88;;;7.70;99.90;;;;;;5077597;28;20043;-70
2021/11/07 10:44:30;;;;;;;12.70;7.38;;;7.80;99.90;;;;;;5092249;28;20541;-72
2021/11/07 10:52:19;;;;;;;9.45;6.70;;;7.90;99.90;;;;;;5093279;28;20035;-69
2021/11/07 10:54:45;;;;;;;8.07;6.03;;;8.00;99.90;;;;;;5093436;28;20548;-70
2021/11/07 10:57:15;;;;;;;7.32;5.38;;;8.10;99.90;;;;;;5092138;28;20360;-70
2021/11/07 11:00:05;;;;;;;8.63;6.03;;;8.10;99.90;;;;;;5088799;28;20347;-71
2021/11/07 11:03:07;;;;;;;8.73;6.20;;;8.10;99.90;;;;;;5053546;28;20035;-70
2021/11/07 11:05:38;;;;;;;8.65;5.13;;;8.10;99.90;;;;;;5090488;28;20020;-72
2021/11/07 11:08:07;;;;;;;7.60;5.72;;;8.20;99.90;;;;;;5093300;28;20032;-71
2021/11/07 11:21:58;;;;;;;;;;;8.50;99.90;;;;;;5094024;28;20024;-71
2021/11/07 11:27:36;;;;;;;3.90;2.45;;;8.50;99.90;;;;;;5055261;28;20424;-70
2021/11/07 11:35:43;;;;;;;2.03;1.88;;;8.80;99.90;;;;;;5073074;28;20032;-72
2021/11/07 11:41:01;;;;;;;2.85;2.20;;;8.80;99.90;;;;;;5073095;28;20073;-72
2021/11/07 11:43:43;;;;;;;2.08;1.70;;;8.90;99.90;;;;;;5054996;28;20028;-71
2021/11/07 11:46:35;;;;;;;;;;;9.00;99.90;;;;;;5054632;28;20024;-70
2021/11/07 11:49:59;;;;;;;2.50;1.90;;;9.00;99.90;;;;;;5071878;28;19973;-70
2021/11/07 12:03:00;;;;;;;1.95;1.75;;;8.90;99.90;;;;;;5072433;28;20072;-71
2021/11/07 12:08:06;;;;;;;2.10;1.90;;;9.00;99.90;;;;;;5071672;28;20378;-72
2021/11/07 12:10:37;;;;;;;2.40;1.90;;;9.00;99.90;;;;;;5054826;28;20021;-73
2021/11/07 12:13:27;;;;;;;3.63;2.25;;;9.10;99.90;;;;;;5054113;28;20429;-71
2021/11/07 12:15:56;;;;;;;3.17;2.30;;;9.10;99.90;;;;;;5051871;28;20032;-72
2021/11/07 12:18:24;;;;;;;2.72;2.20;;;9.10;99.90;;;;;;5072524;28;20028;-71
2021/11/07 12:20:57;;;;;;;2.63;2.10;;;9.10;99.90;;;;;;5054132;28;20134;-71
2021/11/07 12:23:32;;;;;;;3.05;1.90;;;9.20;99.90;;;;;;5041165;28;20119;-72
2021/11/07 12:26:22;;;;;;;3.00;2.35;;;9.20;99.90;;;;;;5042166;28;20051;-73
2021/11/07 12:28:49;;;;;;;2.65;1.77;;;9.10;99.90;;;;;;5071715;28;20112;-70
2021/11/07 12:31:15;;;;;;;6.97;2.70;;;9.10;99.90;;;;;;5071638;28;20061;-70
2021/11/07 12:33:52;;;;;;;3.95;2.65;;;9.10;99.90;;;;;;5071739;28;20047;-70
2021/11/07 12:36:33;;;;;;;3.05;2.45;;;9.10;99.90;;;;;;5071523;28;20048;-70
2021/11/07 12:41:43;;;;;;;4.68;2.75;;;9.10;99.90;;;;;;5051990;28;20024;-72
2021/11/07 12:44:21;;;;;;;4.53;2.78;;;9.00;99.90;;;;;;5051311;28;20029;-71
2021/11/07 12:47:01;;;;;;;5.85;2.63;;;9.10;99.90;;;;;;5034289;28;20450;-71
2021/11/07 12:49:29;;;;;;;5.28;2.60;;;9.10;99.90;;;;;;5052367;28;20386;-71
2021/11/07 12:52:05;;;;;;;4.53;2.25;;;9.10;99.90;;;;;;5051794;28;20029;-71
2021/11/07 12:54:43;;;;;;;2.85;2.55;;;9.20;99.90;;;;;;5033585;28;20532;-70
2021/11/07 12:57:12;;;;;;;3.55;3.10;;;9.20;99.90;;;;;;5033355;28;20044;-71
2021/11/07 12:59:47;;;;;;;2.90;2.60;;;9.30;99.90;;;;;;5033743;28;20053;-70
2021/11/07 13:02:31;;;;;;;11.65;3.00;;;9.40;99.90;;;;;;5051086;28;20025;-72
2021/11/07 13:04:59;;;;;;;3.03;2.40;;;9.40;99.90;;;;;;5051327;28;20412;-71
2021/11/07 13:10:23;;;;;;;6.90;2.72;;;9.40;99.90;;;;;;5051331;28;20025;-71
2021/11/07 13:12:59;;;;;;;4.88;2.95;;;9.40;99.90;;;;;;5051487;28;20051;-71
2021/11/07 13:19:19;;;;;;;5.07;2.22;;;9.40;99.90;;;;;;5050995;28;20021;-72
2021/11/07 13:34:21;;;;;;;2.15;1.95;;;9.50;99.90;;;;;;5070682;28;20063;-72
2021/11/07 13:36:48;;;;;;;1.90;1.63;;;9.60;99.90;;;;;;5071064;28;20440;-72
2021/11/07 13:39:28;;;;;;;4.47;1.85;;;9.60;99.90;;;;;;5052128;28;20113;-72
2021/11/07 13:41:58;;;;;;;2.20;1.95;;;9.70;99.90;;;;;;5070187;28;20326;-72
2021/11/07 13:44:26;;;;;;;4.60;2.38;;;9.70;99.90;;;;;;5070216;28;20044;-73
2021/11/07 13:47:01;;;;;;;2.20;2.00;;;9.70;99.90;;;;;;5071010;28;20025;-71
2021/11/07 13:49:28;;;;;;;2.60;2.13;;;9.70;99.90;;;;;;5071095;28;20033;-70
2021/11/07 13:52:04;;;;;;;2.20;2.00;;;9.70;99.90;;;;;;5052838;28;20032;-73
2021/11/07 13:54:37;;;;;;;4.28;2.47;;;9.70;99.90;;;;;;5052187;28;20037;-72
2021/11/07 13:57:03;;;;;;;2.28;1.92;;;9.60;99.90;;;;;;5052681;28;20168;-72
2021/11/07 13:59:33;;;;;;;2.47;1.83;;;9.60;99.90;;;;;;5053378;28;20401;-70
2021/11/07 14:02:00;;;;;;;2.70;1.95;;;9.50;99.90;;;;;;5053260;28;20397;-72
2021/11/07 14:04:45;;;;;;;3.00;2.20;;;9.50;99.90;;;;;;5071090;28;20044;-72
2021/11/07 14:07:16;;;;;;;2.53;1.80;;;9.50;99.90;;;;;;5051044;28;20024;-72
2021/11/07 14:10:21;;;;;;;6.97;2.60;;;9.40;99.90;;;;;;5050066;28;20024;-68
2021/11/07 14:12:54;;;;;;;2.58;2.38;;;9.40;99.90;;;;;;5065903;28;20020;-70
2021/11/07 14:15:29;;;;;;;4.60;2.75;;;9.50;99.90;;;;;;5048588;28;20446;-73
2021/11/07 14:18:14;;;;;;;4.30;2.53;;;9.60;99.90;;;;;;5052047;28;20035;-71
2021/11/07 14:20:59;;;;;;;2.35;2.15;;;9.80;99.90;;;;;;5055550;28;20029;-70
2021/11/07 14:26:26;;;;;;;3.45;2.60;;;10.10;99.90;;;;;;5062575;28;20137;-70
2021/11/07 14:31:50;;;;;;;4.05;2.70;;;10.00;99.90;;;;;;5075126;28;20040;-71
2021/11/07 14:34:21;;;;;;;3.15;2.42;;;9.90;99.90;;;;;;5031594;28;20177;-70
2021/11/07 14:36:58;;;;;;;4.13;3.10;;;9.80;99.90;;;;;;5035009;28;20162;-69
2021/11/07 14:45:09;;;;;;;3.30;2.83;;;9.70;99.90;;;;;;5051684;28;20037;-70
2021/11/07 14:47:55;;;;;;;3.25;2.88;;;9.90;99.90;;;;;;5051641;28;20442;-70
2021/11/07 14:50:31;;;;;;;2.67;2.47;;;10.20;99.90;;;;;;5051048;28;20099;-71
2021/11/07 14:53:15;;;;;;;5.00;2.67;;;10.30;99.90;;;;;;5035059;28;20509;-67
2021/11/07 14:56:09;;;;;;;5.47;2.90;;;10.10;99.90;;;;;;5036654;28;20041;-67
2021/11/07 14:58:58;;;;;;;4.40;2.53;;;10.10;99.90;;;;;;5015401;28;20068;-69
2021/11/07 15:06:36;;;;;;;;;;;9.90;99.90;;;;;;5070058;28;20055;-69
2021/11/07 15:09:11;;;;;;;2.80;1.98;;;10.00;99.90;;;;;;5069615;28;19931;-67
2021/11/07 15:11:53;;;;;;;3.13;2.30;;;9.90;99.90;;;;;;5063227;28;20036;-67
2021/11/07 15:14:32;;;;;;;3.67;2.70;;;10.00;99.90;;;;;;5072154;28;20125;-67
2021/11/07 15:17:47;;;;;;;2.80;2.50;;;9.80;99.90;;;;;;5060634;28;20029;-68
2021/11/07 15:23:01;;;;;;;4.25;2.75;;;9.80;99.90;;;;;;5066650;28;20028;-68
2021/11/07 15:25:30;;;;;;;3.35;2.70;;;9.70;99.90;;;;;;5058743;28;20350;-68